Asterion — FICK — position and weather

sailwx.info

Track history (hours):
 
Tides and Currents Weather Stations Pressure Air Temp Water Temp Dewpoint Dewpoint Depression Visibility Wind Speed Wind Dir Waves Ship Positions

Asterion

Last reported at 2015-Jul-07 22:08 UTC. Time now 2015-Jul-08 04:24 UTC.
Position N 38°31' E 024°46'.

Length 184 m; draft 7 m.

Type: Tanker. MMSI: 226000000.

Date/timePositionNaut miles runAvg speedWind from/ knotsBaromVisibWave heightAir tempDewpointWater temp
2015-Jul-07 22:08N 38°31' E 024°46'4511.3
2015-Jul-07 18:08N 37°49' E 024°27'813.6
2015-Jul-07 17:33N 37°44' E 024°18'1613.6
2015-Jul-07 16:22N 37°31' E 024°05'1176232.7
2015-Jul-07 11:19N 48°55' E 002°13'1 0.6
2015-Jul-07 10:04N 48°55' E 002°12'99140.4
2015-Jul-06 09:33N 35°57' E 016°04'1414.0
2015-Jul-06 08:33N 35°56' E 015°47'1413.9
2015-Jul-06 07:33N 35°55' E 015°30'1413.9
2015-Jul-06 06:34N 35°54' E 015°13'1414.0
2015-Jul-06 05:33N 35°53' E 014°56'8 7.6
2015-Jul-06 04:31N 35°53' E 014°46'0 0.0
2015-Jul-06 03:31N 35°53' E 014°46'0 0.0
2015-Jul-06 02:31N 35°53' E 014°46'0 0.1
2015-Jul-06 01:31N 35°53' E 014°46'0 0.0
2015-Jul-06 00:31N 35°53' E 014°46'0 0.0
2015-Jul-05 23:31N 35°53' E 014°46'0 0.0
2015-Jul-05 22:31N 35°53' E 014°46'0 0.0
2015-Jul-05 21:31N 35°53' E 014°46'0 0.0
2015-Jul-05 20:31N 35°53' E 014°46'0 0.0
2015-Jul-05 19:31N 35°53' E 014°46'0 0.1
2015-Jul-05 18:29N 35°53' E 014°46'8 8.9
2015-Jul-05 17:33N 36°00' E 014°41'1413.8
2015-Jul-05 16:33N 36°09' E 014°28'1413.8
2015-Jul-05 15:33N 36°16' E 014°13'1413.9
2015-Jul-05 14:34N 36°22' E 013°58'1414.0
2015-Jul-05 13:33N 36°28' E 013°42'1414.0
2015-Jul-05 12:33N 36°33' E 013°26'1414.1
2015-Jul-05 11:33N 36°39' E 013°10'1414.1
2015-Jul-05 10:33N 36°46' E 012°54'1414.0
2015-Jul-05 09:34N 36°51' E 012°38'1414.0
2015-Jul-05 08:34N 36°57' E 012°22'1414.1
2015-Jul-05 07:33N 37°03' E 012°06'1413.9
2015-Jul-05 06:33N 37°08' E 011°50'1414.1
2015-Jul-05 05:33N 37°14' E 011°34'1414.0
2015-Jul-05 04:33N 37°20' E 011°18'1413.6
2015-Jul-05 03:33N 37°24' E 011°02'1414.1
2015-Jul-05 02:33N 37°27' E 010°45'1414.1
2015-Jul-05 01:33N 37°31' E 010°27'1413.9
2015-Jul-05 00:33N 37°33' E 010°10'1413.8
2015-Jul-04 23:33N 37°34' E 009°53'1414.1
2015-Jul-04 22:34N 37°35' E 009°35'1414.1
2015-Jul-04 21:32N 37°36' E 009°17'1413.9
2015-Jul-04 20:32N 37°37' E 008°59'1513.9
2015-Jul-04 19:30N 37°37' E 008°41'1414.0
2015-Jul-04 18:28N 37°36' E 008°23'1313.9
2015-Jul-04 17:33N 37°35' E 008°07'4214.0
2015-Jul-04 14:33N 37°33' E 007°14'5913.7
2015-Jul-04 10:17N 37°30' E 006°00'1013.7
2015-Jul-04 09:31N 37°28' E 005°47'1313.7
2015-Jul-04 08:33N 37°26' E 005°31'1713.9
2015-Jul-04 07:21N 37°24' E 005°10'1314.0
2015-Jul-04 06:26N 37°22' E 004°54'2714.2
2015-Jul-04 04:33N 37°18' E 004°21'1413.8
2015-Jul-04 03:33N 37°16' E 004°03'1313.4
2015-Jul-04 02:33N 37°14' E 003°47'1414.0
2015-Jul-04 01:33N 37°12' E 003°30'1413.7
2015-Jul-04 00:33N 37°10' E 003°12'1414.2
2015-Jul-03 23:34N 37°07' E 002°55'1413.9
2015-Jul-03 22:33N 37°05' E 002°38'1414.1
2015-Jul-03 21:33N 37°02' E 002°20'1413.8
2015-Jul-03 20:33N 36°60' E 002°03'1414.1
2015-Jul-03 19:33N 36°57' E 001°46'1413.7
2015-Jul-03 18:33N 36°54' E 001°29'1413.8
2015-Jul-03 17:33N 36°52' E 001°12'1413.8
2015-Jul-03 16:33N 36°50' E 000°55'1414.0
2015-Jul-03 15:33N 36°49' E 000°38'1414.1
2015-Jul-03 14:33N 36°46' E 000°21'1414.1
2015-Jul-03 13:33N 36°42' E 000°04'1414.0
2015-Jul-03 12:33N 36°39' W 000°13'1414.0
2015-Jul-03 11:33N 36°36' W 000°31'1414.2
2015-Jul-03 10:33N 36°34' W 000°48'3811.5
2015-Jul-03 07:14N 36°27' W 001°35'1014.2
2015-Jul-03 06:31N 36°26' W 001°47'1513.8
2015-Jul-03 05:25N 36°23' W 002°05'1314.1
2015-Jul-03 04:32N 36°21' W 002°21'1414.2
2015-Jul-03 03:33N 36°19' W 002°38'1514.7
2015-Jul-03 02:32N 36°17' W 002°56'10815.5
2015-Jul-02 19:33N 36°04' W 005°10'1313.5
2015-Jul-02 18:34N 36°09' W 005°25'0 0.0
2015-Jul-01 12:33N 36°09' W 005°25'2 1.8
2015-Jul-01 11:31N 36°07' W 005°24'0 0.1
2015-Jul-01 10:31N 36°07' W 005°25'0 0.0
2015-Jul-01 09:31N 36°07' W 005°25'0 0.1
2015-Jul-01 08:31N 36°07' W 005°25'0 0.0
2015-Jul-01 05:16N 36°07' W 005°25'0 0.0
2015-Jul-01 04:19N 36°07' W 005°25'0 0.1
2015-Jul-01 03:31N 36°07' W 005°24'0 0.1
2015-Jul-01 02:31N 36°07' W 005°24'0 0.1
2015-Jul-01 01:31N 36°07' W 005°24'0 0.0
2015-Jul-01 00:31N 36°07' W 005°25'0 0.0
2015-Jun-30 23:32N 36°07' W 005°24'0 0.0
2015-Jun-30 22:32N 36°07' W 005°25'0 0.0
2015-Jun-30 21:32N 36°07' W 005°25'0 0.0
2015-Jun-30 20:32N 36°07' W 005°25'0 0.1
2015-Jun-30 19:32N 36°07' W 005°24'0 0.1
2015-Jun-30 18:32N 36°07' W 005°24'0 0.0
2015-Jun-30 13:32N 36°07' W 005°24'0 0.1
2015-Jun-30 12:32N 36°07' W 005°24'0 0.1
2015-Jun-30 11:32N 36°07' W 005°25'0 0.0
2015-Jun-30 10:32N 36°07' W 005°25'0 0.0
2015-Jun-30 09:26N 36°07' W 005°25'0 0.0
2015-Jun-30 08:26N 36°07' W 005°25'0 0.0
2015-Jun-30 03:08N 36°07' W 005°24'0 0.1
2015-Jun-30 02:26N 36°07' W 005°24'0 0.1
2015-Jun-30 01:32N 36°07' W 005°24'0 0.0
2015-Jun-30 00:29N 36°07' W 005°25'0 0.0
2015-Jun-29 23:32N 36°07' W 005°25'0 0.1
2015-Jun-29 22:29N 36°07' W 005°25'4 4.4
2015-Jun-29 21:31N 36°03' W 005°23'1511.1
2015-Jun-29 20:12N 35°55' W 005°38'146153.8
2015-Jun-29 19:15N 36°21' W 008°35'3 4.4
2015-Jun-29 18:33N 36°22' W 008°39'4 4.3
2015-Jun-29 17:33N 36°23' W 008°44'4 3.9
2015-Jun-29 16:33N 36°24' W 008°49'4 3.8
2015-Jun-29 15:31N 36°25' W 008°54'4 4.1
2015-Jun-29 14:33N 36°26' W 008°59'3 3.4
2015-Jun-29 13:33N 36°27' W 009°03'3 3.1
2015-Jun-29 12:33N 36°27' W 009°06'4 2.6
2015-Jun-29 11:12N 36°28' W 009°11'2 3.4
2015-Jun-29 10:32N 36°29' W 009°13'3 3.5
2015-Jun-29 09:33N 36°30' W 009°18'3131.1
2015-Jun-29 08:33N 36°22' W 008°40'1313.0
2015-Jun-29 07:33N 36°25' W 008°56'1313.0
2015-Jun-29 06:33N 36°28' W 009°11'1212.2
2015-Jun-29 05:33N 36°34' W 009°25'1313.2
2015-Jun-29 04:34N 36°44' W 009°36'1312.8
2015-Jun-29 03:33N 36°56' W 009°40'1313.1
2015-Jun-29 02:33N 37°09' W 009°44'1312.9
2015-Jun-29 01:33N 37°21' W 009°48'1313.0
2015-Jun-29 00:33N 37°34' W 009°52'1313.1
2015-Jun-28 23:33N 37°47' W 009°56'1313.2
2015-Jun-28 22:33N 37°60' W 009°59'1313.1
2015-Jun-28 21:33N 38°12' W 010°03'1313.0
2015-Jun-28 20:33N 38°25' W 010°07'1313.1
2015-Jun-28 19:33N 38°38' W 010°11'1312.9
2015-Jun-28 18:33N 38°51' W 010°12'1312.9
2015-Jun-28 17:33N 39°04' W 010°12'1312.9
2015-Jun-28 16:33N 39°17' W 010°12'1313.2
2015-Jun-28 15:33N 39°30' W 010°12'1313.0
2015-Jun-28 14:33N 39°43' W 010°12'1313.1
2015-Jun-28 13:33N 39°56' W 010°12'1313.1
2015-Jun-28 12:33N 40°09' W 010°12'1413.1
2015-Jun-28 11:26N 40°24' W 010°12'1412.9
2015-Jun-28 10:21N 40°38' W 010°12'1113.1
2015-Jun-28 09:30N 40°49' W 010°12'1213.1
2015-Jun-28 08:33N 41°01' W 010°12'  
Track history (hours):
 
Tides and Currents Weather Stations Pressure Air Temp Water Temp Dewpoint Dewpoint Depression Visibility Wind Speed Wind Dir Waves Ship Positions

Asterion

Last reported at 2015-Jul-07 22:08 UTC. Time now 2015-Jul-08 04:24 UTC.
Position N 38°31' E 024°46'.

Length 184 m; draft 7 m.

Type: Tanker. MMSI: 226000000.

Date/timePositionNaut miles runAvg speedWind from/ knotsBaromVisibWave heightAir tempDewpointWater temp
2015-Jul-07 22:08N 38°31' E 024°46'4511.3
2015-Jul-07 18:08N 37°49' E 024°27'813.6
2015-Jul-07 17:33N 37°44' E 024°18'1613.6
2015-Jul-07 16:22N 37°31' E 024°05'1176232.7
2015-Jul-07 11:19N 48°55' E 002°13'1 0.6
2015-Jul-07 10:04N 48°55' E 002°12'99140.4
2015-Jul-06 09:33N 35°57' E 016°04'1414.0
2015-Jul-06 08:33N 35°56' E 015°47'1413.9
2015-Jul-06 07:33N 35°55' E 015°30'1413.9
2015-Jul-06 06:34N 35°54' E 015°13'1414.0
2015-Jul-06 05:33N 35°53' E 014°56'8 7.6
2015-Jul-06 04:31N 35°53' E 014°46'0 0.0
2015-Jul-06 03:31N 35°53' E 014°46'0 0.0
2015-Jul-06 02:31N 35°53' E 014°46'0 0.1
2015-Jul-06 01:31N 35°53' E 014°46'0 0.0
2015-Jul-06 00:31N 35°53' E 014°46'0 0.0
2015-Jul-05 23:31N 35°53' E 014°46'0 0.0
2015-Jul-05 22:31N 35°53' E 014°46'0 0.0
2015-Jul-05 21:31N 35°53' E 014°46'0 0.0
2015-Jul-05 20:31N 35°53' E 014°46'0 0.0
2015-Jul-05 19:31N 35°53' E 014°46'0 0.1
2015-Jul-05 18:29N 35°53' E 014°46'8 8.9
2015-Jul-05 17:33N 36°00' E 014°41'1413.8
2015-Jul-05 16:33N 36°09' E 014°28'1413.8
2015-Jul-05 15:33N 36°16' E 014°13'1413.9
2015-Jul-05 14:34N 36°22' E 013°58'1414.0
2015-Jul-05 13:33N 36°28' E 013°42'1414.0
2015-Jul-05 12:33N 36°33' E 013°26'1414.1
2015-Jul-05 11:33N 36°39' E 013°10'1414.1
2015-Jul-05 10:33N 36°46' E 012°54'1414.0
2015-Jul-05 09:34N 36°51' E 012°38'1414.0
2015-Jul-05 08:34N 36°57' E 012°22'1414.1
2015-Jul-05 07:33N 37°03' E 012°06'1413.9
2015-Jul-05 06:33N 37°08' E 011°50'1414.1
2015-Jul-05 05:33N 37°14' E 011°34'1414.0
2015-Jul-05 04:33N 37°20' E 011°18'1413.6
2015-Jul-05 03:33N 37°24' E 011°02'1414.1
2015-Jul-05 02:33N 37°27' E 010°45'1414.1
2015-Jul-05 01:33N 37°31' E 010°27'1413.9
2015-Jul-05 00:33N 37°33' E 010°10'1413.8
2015-Jul-04 23:33N 37°34' E 009°53'1414.1
2015-Jul-04 22:34N 37°35' E 009°35'1414.1
2015-Jul-04 21:32N 37°36' E 009°17'1413.9
2015-Jul-04 20:32N 37°37' E 008°59'1513.9
2015-Jul-04 19:30N 37°37' E 008°41'1414.0
2015-Jul-04 18:28N 37°36' E 008°23'1313.9
2015-Jul-04 17:33N 37°35' E 008°07'4214.0
2015-Jul-04 14:33N 37°33' E 007°14'5913.7
2015-Jul-04 10:17N 37°30' E 006°00'1013.7
2015-Jul-04 09:31N 37°28' E 005°47'1313.7
2015-Jul-04 08:33N 37°26' E 005°31'1713.9
2015-Jul-04 07:21N 37°24' E 005°10'1314.0
2015-Jul-04 06:26N 37°22' E 004°54'2714.2
2015-Jul-04 04:33N 37°18' E 004°21'1413.8
2015-Jul-04 03:33N 37°16' E 004°03'1313.4
2015-Jul-04 02:33N 37°14' E 003°47'1414.0
2015-Jul-04 01:33N 37°12' E 003°30'1413.7
2015-Jul-04 00:33N 37°10' E 003°12'1414.2
2015-Jul-03 23:34N 37°07' E 002°55'1413.9
2015-Jul-03 22:33N 37°05' E 002°38'1414.1
2015-Jul-03 21:33N 37°02' E 002°20'1413.8
2015-Jul-03 20:33N 36°60' E 002°03'1414.1
2015-Jul-03 19:33N 36°57' E 001°46'1413.7
2015-Jul-03 18:33N 36°54' E 001°29'1413.8
2015-Jul-03 17:33N 36°52' E 001°12'1413.8
2015-Jul-03 16:33N 36°50' E 000°55'1414.0
2015-Jul-03 15:33N 36°49' E 000°38'1414.1
2015-Jul-03 14:33N 36°46' E 000°21'1414.1
2015-Jul-03 13:33N 36°42' E 000°04'1414.0
2015-Jul-03 12:33N 36°39' W 000°13'1414.0
2015-Jul-03 11:33N 36°36' W 000°31'1414.2
2015-Jul-03 10:33N 36°34' W 000°48'3811.5
2015-Jul-03 07:14N 36°27' W 001°35'1014.2
2015-Jul-03 06:31N 36°26' W 001°47'1513.8
2015-Jul-03 05:25N 36°23' W 002°05'1314.1
2015-Jul-03 04:32N 36°21' W 002°21'1414.2
2015-Jul-03 03:33N 36°19' W 002°38'1514.7
2015-Jul-03 02:32N 36°17' W 002°56'10815.5
2015-Jul-02 19:33N 36°04' W 005°10'1313.5
2015-Jul-02 18:34N 36°09' W 005°25'0 0.0
2015-Jul-01 12:33N 36°09' W 005°25'2 1.8
2015-Jul-01 11:31N 36°07' W 005°24'0 0.1
2015-Jul-01 10:31N 36°07' W 005°25'0 0.0
2015-Jul-01 09:31N 36°07' W 005°25'0 0.1
2015-Jul-01 08:31N 36°07' W 005°25'0 0.0
2015-Jul-01 05:16N 36°07' W 005°25'0 0.0
2015-Jul-01 04:19N 36°07' W 005°25'0 0.1
2015-Jul-01 03:31N 36°07' W 005°24'0 0.1
2015-Jul-01 02:31N 36°07' W 005°24'0 0.1
2015-Jul-01 01:31N 36°07' W 005°24'0 0.0
2015-Jul-01 00:31N 36°07' W 005°25'0 0.0
2015-Jun-30 23:32N 36°07' W 005°24'0 0.0
2015-Jun-30 22:32N 36°07' W 005°25'0 0.0
2015-Jun-30 21:32N 36°07' W 005°25'0 0.0
2015-Jun-30 20:32N 36°07' W 005°25'0 0.1
2015-Jun-30 19:32N 36°07' W 005°24'0 0.1
2015-Jun-30 18:32N 36°07' W 005°24'0 0.0
2015-Jun-30 13:32N 36°07' W 005°24'0 0.1
2015-Jun-30 12:32N 36°07' W 005°24'0 0.1
2015-Jun-30 11:32N 36°07' W 005°25'0 0.0
2015-Jun-30 10:32N 36°07' W 005°25'0 0.0
2015-Jun-30 09:26N 36°07' W 005°25'0 0.0
2015-Jun-30 08:26N 36°07' W 005°25'0 0.0
2015-Jun-30 03:08N 36°07' W 005°24'0 0.1
2015-Jun-30 02:26N 36°07' W 005°24'0 0.1
2015-Jun-30 01:32N 36°07' W 005°24'0 0.0
2015-Jun-30 00:29N 36°07' W 005°25'0 0.0
2015-Jun-29 23:32N 36°07' W 005°25'0 0.1
2015-Jun-29 22:29N 36°07' W 005°25'4 4.4
2015-Jun-29 21:31N 36°03' W 005°23'1511.1
2015-Jun-29 20:12N 35°55' W 005°38'146153.8
2015-Jun-29 19:15N 36°21' W 008°35'3 4.4
2015-Jun-29 18:33N 36°22' W 008°39'4 4.3
2015-Jun-29 17:33N 36°23' W 008°44'4 3.9
2015-Jun-29 16:33N 36°24' W 008°49'4 3.8
2015-Jun-29 15:31N 36°25' W 008°54'4 4.1
2015-Jun-29 14:33N 36°26' W 008°59'3 3.4
2015-Jun-29 13:33N 36°27' W 009°03'3 3.1
2015-Jun-29 12:33N 36°27' W 009°06'4 2.6
2015-Jun-29 11:12N 36°28' W 009°11'2 3.4
2015-Jun-29 10:32N 36°29' W 009°13'3 3.5
2015-Jun-29 09:33N 36°30' W 009°18'3131.1
2015-Jun-29 08:33N 36°22' W 008°40'1313.0
2015-Jun-29 07:33N 36°25' W 008°56'1313.0
2015-Jun-29 06:33N 36°28' W 009°11'1212.2
2015-Jun-29 05:33N 36°34' W 009°25'1313.2
2015-Jun-29 04:34N 36°44' W 009°36'1312.8
2015-Jun-29 03:33N 36°56' W 009°40'1313.1
2015-Jun-29 02:33N 37°09' W 009°44'1312.9
2015-Jun-29 01:33N 37°21' W 009°48'1313.0
2015-Jun-29 00:33N 37°34' W 009°52'1313.1
2015-Jun-28 23:33N 37°47' W 009°56'1313.2
2015-Jun-28 22:33N 37°60' W 009°59'1313.1
2015-Jun-28 21:33N 38°12' W 010°03'1313.0
2015-Jun-28 20:33N 38°25' W 010°07'1313.1
2015-Jun-28 19:33N 38°38' W 010°11'1312.9
2015-Jun-28 18:33N 38°51' W 010°12'1312.9
2015-Jun-28 17:33N 39°04' W 010°12'1312.9
2015-Jun-28 16:33N 39°17' W 010°12'1313.2
2015-Jun-28 15:33N 39°30' W 010°12'1313.0
2015-Jun-28 14:33N 39°43' W 010°12'1313.1
2015-Jun-28 13:33N 39°56' W 010°12'1313.1
2015-Jun-28 12:33N 40°09' W 010°12'1413.1
2015-Jun-28 11:26N 40°24' W 010°12'1412.9
2015-Jun-28 10:21N 40°38' W 010°12'1113.1
2015-Jun-28 09:30N 40°49' W 010°12'1213.1
2015-Jun-28 08:33N 41°01' W 010°12'  

Dump ship's entire track history